Pagina principale
METAR-TAF:

METAR-TAF

Aeroporti :

Aeroporto di Annaba-Rabah Bitat

Annaba, Algeria

latitudine: 36-50N, longitudine: 007-49E, altezza: 4 m

Osservazione

Il bollettino è stato emesso 31 minuti fa, alle 04:30 UTC
Vento 11 kt da ovest/sud-ovest
Temperature 11°C
Umidità 87%
Pressione 1013 hPa
Visibilità: 8000 m
Poco nuvoloso ad un'altezza di 2300 ft
Poco nuvoloso ad un'altezza di 2600 ft, Cumulonembo.
Nuvoloso ad un'altezza di 3000 ft

METAR: DABB 300430Z 25011KT 8000 FEW023 FEW026CB BKN030 11/09 Q1013

Ora: 06:01 (05:01 UTC)

Previsione

Il bollettino è stato emesso 6 ore e 1 minuti fa, alle 23:00 UTC
Previsione valida dal 30 alle 00 UTC al 30 alle 24 UTC
Vento 8 kt da sud-ovest
Visibilità 10 km o più
Poco nuvoloso ad un'altezza di 2000 ft
Nuvoloso ad un'altezza di 2600 ft
Temporaneamente
dal 30 alle 00 UTC al 30 alle 09 UTC
Poco nuvoloso ad un'altezza di 2300 ft, Cumulonembo.

TAF: DABB 292300Z 3000/3024 22008KT 9999 FEW020 BKN026 TEMPO 3000/3009 FEW023CB

Osservazioni e previsioni meteorologiche di più di 4000 aeroporti (messaggi METAR e TAF).

Le stazioni disponibili sono rappresentate dai dischi gialli e rossi sulla carta.

Puntare il mouse per vedere il nome della stazione.

Clicca sopra per visualizzare le osservazioni e previsioni meteorologiche.

Per cambiare la mappa : fare clic sui pulsanti verdi con una croce nera per ingrandire, il pulsante verde con un trattino per diminuire, o sulla freccia verde per le mappe adiacenti.


METAR-TAF: